Elm Grove, West Virginia
Current Conditions -  °F | °C
As of 1:53 AM on Sunday 26 Oct 2014 (Local Time) from KHLG Reporting Station
Clear Clear  
Wind Chill: 13°   Ceiling: Unl
Heat Index: 13°   Visibility: 10mi
Dew Point: -1°   Wind: 9mph
Humidity: 38%   Direction: 300°WNW
Pressure: 29.83"   Gusts: NA
Location:  40.0729°N, 80.6524°W
Report Text: KHLG 260553Z AUTO 30008KT 10SM CLR 13/M01 A2983 RMK AO2 SLP100 T01281011 10161 20128 51006
Loading
Personal Weather Stations






























Interactive Weather Map
Tropical Storm Tracking
New forecast layout! Learn more

10-Day Weather Forecast

Advertisements
Track Severe Weather on mobile